sensor_id;sensor_type;location;lat;lon;timestamp;temperature;humidity
4390;DHT22;2209;48.982;8.406;2022-09-09T00:00:14;20.30;99.30
4390;DHT22;2209;48.982;8.406;2022-09-09T00:02:39;20.30;99.00
4390;DHT22;2209;48.982;8.406;2022-09-09T00:05:14;20.30;99.00
4390;DHT22;2209;48.982;8.406;2022-09-09T00:07:43;20.30;98.90
4390;DHT22;2209;48.982;8.406;2022-09-09T00:10:16;20.30;98.80
4390;DHT22;2209;48.982;8.406;2022-09-09T00:12:50;20.30;98.70
4390;DHT22;2209;48.982;8.406;2022-09-09T00:15:19;20.30;98.50
4390;DHT22;2209;48.982;8.406;2022-09-09T00:17:49;20.30;98.40
4390;DHT22;2209;48.982;8.406;2022-09-09T00:20:19;20.30;98.40
4390;DHT22;2209;48.982;8.406;2022-09-09T00:22:47;20.30;98.40
4390;DHT22;2209;48.982;8.406;2022-09-09T00:25:12;20.30;98.40
4390;DHT22;2209;48.982;8.406;2022-09-09T00:27:41;20.30;98.50
4390;DHT22;2209;48.982;8.406;2022-09-09T00:30:14;20.30;98.60
4390;DHT22;2209;48.982;8.406;2022-09-09T00:32:40;20.40;98.80
4390;DHT22;2209;48.982;8.406;2022-09-09T00:35:14;20.30;98.80
4390;DHT22;2209;48.982;8.406;2022-09-09T00:37:38;20.30;99.00
4390;DHT22;2209;48.982;8.406;2022-09-09T00:40:08;20.30;99.10
4390;DHT22;2209;48.982;8.406;2022-09-09T00:42:42;20.30;99.20
4390;DHT22;2209;48.982;8.406;2022-09-09T00:45:15;20.30;99.30
4390;DHT22;2209;48.982;8.406;2022-09-09T00:47:43;20.30;99.40
4390;DHT22;2209;48.982;8.406;2022-09-09T00:53:02;20.30;99.60
4390;DHT22;2209;48.982;8.406;2022-09-09T00:55:34;20.30;99.80
4390;DHT22;2209;48.982;8.406;2022-09-09T00:58:02;20.30;99.90
4390;DHT22;2209;48.982;8.406;2022-09-09T01:00:25;20.20;99.80
4390;DHT22;2209;48.982;8.406;2022-09-09T01:03:06;20.20;99.80
4390;DHT22;2209;48.982;8.406;2022-09-09T01:05:41;20.30;99.80
4390;DHT22;2209;48.982;8.406;2022-09-09T01:08:11;20.20;99.70
4390;DHT22;2209;48.982;8.406;2022-09-09T01:10:43;20.30;99.70
4390;DHT22;2209;48.982;8.406;2022-09-09T01:13:13;20.30;99.70
4390;DHT22;2209;48.982;8.406;2022-09-09T01:15:38;20.20;99.70
4390;DHT22;2209;48.982;8.406;2022-09-09T01:18:05;20.30;99.70
4390;DHT22;2209;48.982;8.406;2022-09-09T01:20:33;20.30;99.70
4390;DHT22;2209;48.982;8.406;2022-09-09T01:23:10;20.20;99.60
4390;DHT22;2209;48.982;8.406;2022-09-09T01:26:07;20.10;99.50
4390;DHT22;2209;48.982;8.406;2022-09-09T01:28:31;20.10;99.40
4390;DHT22;2209;48.982;8.406;2022-09-09T01:30:56;20.00;99.40
4390;DHT22;2209;48.982;8.406;2022-09-09T01:33:19;19.90;99.50
4390;DHT22;2209;48.982;8.406;2022-09-09T01:35:46;19.80;99.90
4390;DHT22;2209;48.982;8.406;2022-09-09T01:41:32;19.70;99.90
4390;DHT22;2209;48.982;8.406;2022-09-09T01:43:55;19.70;99.90
4390;DHT22;2209;48.982;8.406;2022-09-09T01:46:21;19.70;99.90
4390;DHT22;2209;48.982;8.406;2022-09-09T01:48:45;19.70;99.90
4390;DHT22;2209;48.982;8.406;2022-09-09T01:51:08;19.70;99.90
4390;DHT22;2209;48.982;8.406;2022-09-09T01:53:31;19.70;99.90
4390;DHT22;2209;48.982;8.406;2022-09-09T01:56:05;19.70;99.90
4390;DHT22;2209;48.982;8.406;2022-09-09T01:58:42;19.70;99.90
4390;DHT22;2209;48.982;8.406;2022-09-09T02:01:09;19.70;99.90
4390;DHT22;2209;48.982;8.406;2022-09-09T02:03:35;19.70;99.90
4390;DHT22;2209;48.982;8.406;2022-09-09T02:06:04;19.70;99.90
4390;DHT22;2209;48.982;8.406;2022-09-09T02:08:34;19.70;99.90
4390;DHT22;2209;48.982;8.406;2022-09-09T02:11:03;19.80;99.90
4390;DHT22;2209;48.982;8.406;2022-09-09T02:13:29;19.80;99.90
4390;DHT22;2209;48.982;8.406;2022-09-09T02:15:59;19.80;99.90
4390;DHT22;2209;48.982;8.406;2022-09-09T02:18:27;19.70;99.90
4390;DHT22;2209;48.982;8.406;2022-09-09T02:20:51;19.80;99.90
4390;DHT22;2209;48.982;8.406;2022-09-09T02:23:15;19.70;99.90
4390;DHT22;2209;48.982;8.406;2022-09-09T02:25:40;19.70;99.90
4390;DHT22;2209;48.982;8.406;2022-09-09T02:28:07;19.70;99.90
4390;DHT22;2209;48.982;8.406;2022-09-09T02:30:32;19.70;99.90
4390;DHT22;2209;48.982;8.406;2022-09-09T02:32:58;19.70;99.90
4390;DHT22;2209;48.982;8.406;2022-09-09T02:35:23;19.70;99.90
4390;DHT22;2209;48.982;8.406;2022-09-09T02:37:49;19.70;99.90
4390;DHT22;2209;48.982;8.406;2022-09-09T02:40:13;19.70;99.90
4390;DHT22;2209;48.982;8.406;2022-09-09T02:42:39;19.70;99.90
4390;DHT22;2209;48.982;8.406;2022-09-09T02:45:01;19.70;99.90
4390;DHT22;2209;48.982;8.406;2022-09-09T02:47:29;19.70;99.90
4390;DHT22;2209;48.982;8.406;2022-09-09T02:49:59;19.70;99.90
4390;DHT22;2209;48.982;8.406;2022-09-09T02:52:27;19.70;99.90
4390;DHT22;2209;48.982;8.406;2022-09-09T02:54:59;19.70;99.90
4390;DHT22;2209;48.982;8.406;2022-09-09T02:57:25;19.60;99.90
4390;DHT22;2209;48.982;8.406;2022-09-09T02:59:49;19.70;99.90
4390;DHT22;2209;48.982;8.406;2022-09-09T03:02:13;19.70;99.90
4390;DHT22;2209;48.982;8.406;2022-09-09T03:04:35;19.60;99.90
4390;DHT22;2209;48.982;8.406;2022-09-09T03:06:59;19.70;99.90
4390;DHT22;2209;48.982;8.406;2022-09-09T03:09:21;19.60;99.90
4390;DHT22;2209;48.982;8.406;2022-09-09T03:11:43;19.60;99.90
4390;DHT22;2209;48.982;8.406;2022-09-09T03:14:05;19.70;99.90
4390;DHT22;2209;48.982;8.406;2022-09-09T03:16:28;19.70;99.90
4390;DHT22;2209;48.982;8.406;2022-09-09T03:18:50;19.60;99.90
4390;DHT22;2209;48.982;8.406;2022-09-09T03:21:13;19.60;99.90
4390;DHT22;2209;48.982;8.406;2022-09-09T03:23:36;19.60;99.90
4390;DHT22;2209;48.982;8.406;2022-09-09T03:25:58;19.60;99.90
4390;DHT22;2209;48.982;8.406;2022-09-09T03:28:20;19.60;99.90
4390;DHT22;2209;48.982;8.406;2022-09-09T03:30:44;19.50;99.90
4390;DHT22;2209;48.982;8.406;2022-09-09T03:33:06;19.50;99.90
4390;DHT22;2209;48.982;8.406;2022-09-09T03:35:28;19.50;99.90
4390;DHT22;2209;48.982;8.406;2022-09-09T03:37:50;19.50;99.90
4390;DHT22;2209;48.982;8.406;2022-09-09T03:40:14;19.50;99.90
4390;DHT22;2209;48.982;8.406;2022-09-09T03:42:36;19.50;99.90
4390;DHT22;2209;48.982;8.406;2022-09-09T03:44:58;19.50;99.90
4390;DHT22;2209;48.982;8.406;2022-09-09T03:47:21;19.50;99.90
4390;DHT22;2209;48.982;8.406;2022-09-09T03:49:43;19.50;99.90
4390;DHT22;2209;48.982;8.406;2022-09-09T03:52:05;19.50;99.90
4390;DHT22;2209;48.982;8.406;2022-09-09T03:54:27;19.40;99.90
4390;DHT22;2209;48.982;8.406;2022-09-09T03:56:51;19.50;99.90
4390;DHT22;2209;48.982;8.406;2022-09-09T03:59:13;19.40;99.90
4390;DHT22;2209;48.982;8.406;2022-09-09T04:01:35;19.40;99.90
4390;DHT22;2209;48.982;8.406;2022-09-09T04:03:57;19.40;99.90
4390;DHT22;2209;48.982;8.406;2022-09-09T04:06:20;19.40;99.90
4390;DHT22;2209;48.982;8.406;2022-09-09T04:08:42;19.40;99.90
4390;DHT22;2209;48.982;8.406;2022-09-09T04:11:05;19.40;99.90
4390;DHT22;2209;48.982;8.406;2022-09-09T04:13:29;19.40;99.90
4390;DHT22;2209;48.982;8.406;2022-09-09T04:15:52;19.30;99.90
4390;DHT22;2209;48.982;8.406;2022-09-09T04:18:14;19.40;99.90
4390;DHT22;2209;48.982;8.406;2022-09-09T04:20:36;19.40;99.90
4390;DHT22;2209;48.982;8.406;2022-09-09T04:22:58;19.30;99.90
4390;DHT22;2209;48.982;8.406;2022-09-09T04:25:21;19.40;99.90
4390;DHT22;2209;48.982;8.406;2022-09-09T04:27:43;19.30;99.90
4390;DHT22;2209;48.982;8.406;2022-09-09T04:30:07;19.30;99.90
4390;DHT22;2209;48.982;8.406;2022-09-09T04:32:29;19.30;99.90
4390;DHT22;2209;48.982;8.406;2022-09-09T04:34:53;19.30;99.90
4390;DHT22;2209;48.982;8.406;2022-09-09T04:37:16;19.30;99.90
4390;DHT22;2209;48.982;8.406;2022-09-09T04:39:38;19.30;99.90
4390;DHT22;2209;48.982;8.406;2022-09-09T04:42:00;19.30;99.90
4390;DHT22;2209;48.982;8.406;2022-09-09T04:44:22;19.30;99.90
4390;DHT22;2209;48.982;8.406;2022-09-09T04:46:46;19.30;99.90
4390;DHT22;2209;48.982;8.406;2022-09-09T04:49:08;19.30;99.90
4390;DHT22;2209;48.982;8.406;2022-09-09T04:51:30;19.30;99.90
4390;DHT22;2209;48.982;8.406;2022-09-09T04:53:52;19.30;99.90
4390;DHT22;2209;48.982;8.406;2022-09-09T04:56:16;19.30;99.90
4390;DHT22;2209;48.982;8.406;2022-09-09T04:58:39;19.30;99.90
4390;DHT22;2209;48.982;8.406;2022-09-09T05:01:04;19.30;99.90
4390;DHT22;2209;48.982;8.406;2022-09-09T05:03:27;19.30;99.90
4390;DHT22;2209;48.982;8.406;2022-09-09T05:05:50;19.30;99.90
4390;DHT22;2209;48.982;8.406;2022-09-09T05:08:12;19.30;99.90
4390;DHT22;2209;48.982;8.406;2022-09-09T05:10:36;19.30;99.90
4390;DHT22;2209;48.982;8.406;2022-09-09T05:12:58;19.30;99.90
4390;DHT22;2209;48.982;8.406;2022-09-09T05:15:20;19.30;99.90
4390;DHT22;2209;48.982;8.406;2022-09-09T05:17:42;19.30;99.90
4390;DHT22;2209;48.982;8.406;2022-09-09T05:20:07;19.30;99.90
4390;DHT22;2209;48.982;8.406;2022-09-09T05:22:30;19.30;99.90
4390;DHT22;2209;48.982;8.406;2022-09-09T05:24:52;19.30;99.90
4390;DHT22;2209;48.982;8.406;2022-09-09T05:27:14;19.30;99.90
4390;DHT22;2209;48.982;8.406;2022-09-09T05:29:36;19.30;99.90
4390;DHT22;2209;48.982;8.406;2022-09-09T05:31:58;19.30;99.90
4390;DHT22;2209;48.982;8.406;2022-09-09T05:34:20;19.30;99.90
4390;DHT22;2209;48.982;8.406;2022-09-09T05:36:44;19.30;99.90
4390;DHT22;2209;48.982;8.406;2022-09-09T05:39:07;19.20;99.90
4390;DHT22;2209;48.982;8.406;2022-09-09T05:41:29;19.30;99.90
4390;DHT22;2209;48.982;8.406;2022-09-09T05:43:52;19.30;99.90
4390;DHT22;2209;48.982;8.406;2022-09-09T05:46:16;19.30;99.90
4390;DHT22;2209;48.982;8.406;2022-09-09T05:48:39;19.30;99.90
4390;DHT22;2209;48.982;8.406;2022-09-09T05:51:03;19.30;99.90
4390;DHT22;2209;48.982;8.406;2022-09-09T05:53:27;19.20;99.90
4390;DHT22;2209;48.982;8.406;2022-09-09T05:55:59;19.20;99.90
4390;DHT22;2209;48.982;8.406;2022-09-09T05:58:22;19.20;99.90
4390;DHT22;2209;48.982;8.406;2022-09-09T06:00:45;19.20;99.90
4390;DHT22;2209;48.982;8.406;2022-09-09T06:03:10;19.20;99.90
4390;DHT22;2209;48.982;8.406;2022-09-09T06:05:32;19.20;99.90
4390;DHT22;2209;48.982;8.406;2022-09-09T06:07:55;19.20;99.90
4390;DHT22;2209;48.982;8.406;2022-09-09T06:10:19;19.20;99.90
4390;DHT22;2209;48.982;8.406;2022-09-09T06:12:41;19.20;99.90
4390;DHT22;2209;48.982;8.406;2022-09-09T06:15:04;19.30;99.90
4390;DHT22;2209;48.982;8.406;2022-09-09T06:17:26;19.30;99.90
4390;DHT22;2209;48.982;8.406;2022-09-09T06:19:48;19.30;99.90
4390;DHT22;2209;48.982;8.406;2022-09-09T06:22:12;19.30;99.90
4390;DHT22;2209;48.982;8.406;2022-09-09T06:24:34;19.30;99.90
4390;DHT22;2209;48.982;8.406;2022-09-09T06:26:57;19.30;99.90
4390;DHT22;2209;48.982;8.406;2022-09-09T06:29:19;19.30;99.90
4390;DHT22;2209;48.982;8.406;2022-09-09T06:31:41;19.30;99.90
4390;DHT22;2209;48.982;8.406;2022-09-09T06:34:05;19.30;99.90
4390;DHT22;2209;48.982;8.406;2022-09-09T06:36:29;19.30;99.90
4390;DHT22;2209;48.982;8.406;2022-09-09T06:38:51;19.30;99.90
4390;DHT22;2209;48.982;8.406;2022-09-09T06:41:15;19.30;99.90
4390;DHT22;2209;48.982;8.406;2022-09-09T06:43:40;19.30;99.90
4390;DHT22;2209;48.982;8.406;2022-09-09T06:46:04;19.30;99.90
4390;DHT22;2209;48.982;8.406;2022-09-09T06:48:27;19.30;99.90
4390;DHT22;2209;48.982;8.406;2022-09-09T06:50:49;19.30;99.90
4390;DHT22;2209;48.982;8.406;2022-09-09T06:53:11;19.30;99.90
4390;DHT22;2209;48.982;8.406;2022-09-09T06:55:33;19.30;99.90
4390;DHT22;2209;48.982;8.406;2022-09-09T06:57:55;19.30;99.90
4390;DHT22;2209;48.982;8.406;2022-09-09T07:00:19;19.30;99.90
4390;DHT22;2209;48.982;8.406;2022-09-09T07:02:41;19.30;99.90
4390;DHT22;2209;48.982;8.406;2022-09-09T07:05:03;19.30;99.90
4390;DHT22;2209;48.982;8.406;2022-09-09T07:07:26;19.30;99.90
4390;DHT22;2209;48.982;8.406;2022-09-09T07:09:48;19.30;99.90
4390;DHT22;2209;48.982;8.406;2022-09-09T07:12:10;19.30;99.90
4390;DHT22;2209;48.982;8.406;2022-09-09T07:14:33;19.30;99.90
4390;DHT22;2209;48.982;8.406;2022-09-09T07:16:59;19.30;99.90
4390;DHT22;2209;48.982;8.406;2022-09-09T07:19:22;19.30;99.90
4390;DHT22;2209;48.982;8.406;2022-09-09T07:21:44;19.30;99.90
4390;DHT22;2209;48.982;8.406;2022-09-09T07:24:06;19.30;99.90
4390;DHT22;2209;48.982;8.406;2022-09-09T07:26:31;19.30;99.90
4390;DHT22;2209;48.982;8.406;2022-09-09T07:28:53;19.30;99.90
4390;DHT22;2209;48.982;8.406;2022-09-09T07:31:18;19.30;99.90
4390;DHT22;2209;48.982;8.406;2022-09-09T07:33:43;19.30;99.90
4390;DHT22;2209;48.982;8.406;2022-09-09T07:36:07;19.40;99.90
4390;DHT22;2209;48.982;8.406;2022-09-09T07:38:30;19.40;99.90
4390;DHT22;2209;48.982;8.406;2022-09-09T07:40:52;19.30;99.90
4390;DHT22;2209;48.982;8.406;2022-09-09T07:43:14;19.40;99.90
4390;DHT22;2209;48.982;8.406;2022-09-09T07:45:37;19.30;99.90
4390;DHT22;2209;48.982;8.406;2022-09-09T07:48:01;19.40;99.90
4390;DHT22;2209;48.982;8.406;2022-09-09T07:50:25;19.40;99.90
4390;DHT22;2209;48.982;8.406;2022-09-09T07:52:47;19.40;99.90
4390;DHT22;2209;48.982;8.406;2022-09-09T07:55:09;19.40;99.90
4390;DHT22;2209;48.982;8.406;2022-09-09T07:57:31;19.40;99.90
4390;DHT22;2209;48.982;8.406;2022-09-09T07:59:53;19.30;99.90
4390;DHT22;2209;48.982;8.406;2022-09-09T08:02:17;19.30;99.90
4390;DHT22;2209;48.982;8.406;2022-09-09T08:04:39;19.40;99.90
4390;DHT22;2209;48.982;8.406;2022-09-09T08:07:04;19.30;99.90
4390;DHT22;2209;48.982;8.406;2022-09-09T08:09:27;19.30;99.90
4390;DHT22;2209;48.982;8.406;2022-09-09T08:11:49;19.40;99.90
4390;DHT22;2209;48.982;8.406;2022-09-09T08:14:12;19.40;99.90
4390;DHT22;2209;48.982;8.406;2022-09-09T08:16:37;19.40;99.90
4390;DHT22;2209;48.982;8.406;2022-09-09T08:18:59;19.50;99.90
4390;DHT22;2209;48.982;8.406;2022-09-09T08:21:22;19.50;99.90
4390;DHT22;2209;48.982;8.406;2022-09-09T08:23:46;19.50;99.90
4390;DHT22;2209;48.982;8.406;2022-09-09T08:26:11;19.50;99.90
4390;DHT22;2209;48.982;8.406;2022-09-09T08:28:34;19.60;99.90
4390;DHT22;2209;48.982;8.406;2022-09-09T08:30:56;19.60;99.90
4390;DHT22;2209;48.982;8.406;2022-09-09T08:33:26;19.60;99.90
4390;DHT22;2209;48.982;8.406;2022-09-09T08:35:50;19.60;99.90
4390;DHT22;2209;48.982;8.406;2022-09-09T08:38:12;19.60;99.90
4390;DHT22;2209;48.982;8.406;2022-09-09T08:40:41;19.50;99.90
4390;DHT22;2209;48.982;8.406;2022-09-09T08:43:06;19.50;99.90
4390;DHT22;2209;48.982;8.406;2022-09-09T08:45:32;19.50;99.90
4390;DHT22;2209;48.982;8.406;2022-09-09T08:48:15;19.40;99.90
4390;DHT22;2209;48.982;8.406;2022-09-09T08:50:39;19.40;99.90
4390;DHT22;2209;48.982;8.406;2022-09-09T08:53:04;19.40;99.90
4390;DHT22;2209;48.982;8.406;2022-09-09T08:55:37;19.50;99.90
4390;DHT22;2209;48.982;8.406;2022-09-09T08:58:06;19.40;99.90
4390;DHT22;2209;48.982;8.406;2022-09-09T09:00:40;19.50;99.90
4390;DHT22;2209;48.982;8.406;2022-09-09T09:03:09;19.40;99.90
4390;DHT22;2209;48.982;8.406;2022-09-09T09:05:40;19.40;99.90
4390;DHT22;2209;48.982;8.406;2022-09-09T09:08:12;19.40;99.90
4390;DHT22;2209;48.982;8.406;2022-09-09T09:10:45;19.40;99.90
4390;DHT22;2209;48.982;8.406;2022-09-09T09:13:14;19.40;99.90
4390;DHT22;2209;48.982;8.406;2022-09-09T09:15:38;19.50;99.90
4390;DHT22;2209;48.982;8.406;2022-09-09T09:18:02;19.50;99.90
4390;DHT22;2209;48.982;8.406;2022-09-09T09:20:36;19.50;99.90
4390;DHT22;2209;48.982;8.406;2022-09-09T09:23:03;19.50;99.90
4390;DHT22;2209;48.982;8.406;2022-09-09T09:25:30;19.50;99.90
4390;DHT22;2209;48.982;8.406;2022-09-09T09:27:58;19.50;99.90
4390;DHT22;2209;48.982;8.406;2022-09-09T09:30:23;19.50;99.90
4390;DHT22;2209;48.982;8.406;2022-09-09T09:32:53;19.50;99.90
4390;DHT22;2209;48.982;8.406;2022-09-09T09:35:16;19.50;99.90
4390;DHT22;2209;48.982;8.406;2022-09-09T09:37:40;19.50;99.90
4390;DHT22;2209;48.982;8.406;2022-09-09T09:40:11;19.50;99.90
4390;DHT22;2209;48.982;8.406;2022-09-09T09:42:34;19.50;99.90
4390;DHT22;2209;48.982;8.406;2022-09-09T09:45:07;19.50;99.90
4390;DHT22;2209;48.982;8.406;2022-09-09T09:47:29;19.50;99.90
4390;DHT22;2209;48.982;8.406;2022-09-09T09:49:54;19.50;99.90
4390;DHT22;2209;48.982;8.406;2022-09-09T09:52:23;19.50;99.90
4390;DHT22;2209;48.982;8.406;2022-09-09T09:54:52;19.50;99.90
4390;DHT22;2209;48.982;8.406;2022-09-09T09:57:16;19.40;99.90
4390;DHT22;2209;48.982;8.406;2022-09-09T09:59:39;19.40;99.90
4390;DHT22;2209;48.982;8.406;2022-09-09T10:02:22;19.40;99.90
4390;DHT22;2209;48.982;8.406;2022-09-09T10:04:46;19.40;99.90
4390;DHT22;2209;48.982;8.406;2022-09-09T10:07:18;19.50;99.90
4390;DHT22;2209;48.982;8.406;2022-09-09T10:09:41;19.50;99.90
4390;DHT22;2209;48.982;8.406;2022-09-09T10:12:09;19.50;99.90
4390;DHT22;2209;48.982;8.406;2022-09-09T10:14:52;19.50;99.90
4390;DHT22;2209;48.982;8.406;2022-09-09T10:17:31;19.40;99.90
4390;DHT22;2209;48.982;8.406;2022-09-09T10:20:16;19.50;99.90
4390;DHT22;2209;48.982;8.406;2022-09-09T10:22:47;19.50;99.90
4390;DHT22;2209;48.982;8.406;2022-09-09T10:25:31;19.50;99.90
4390;DHT22;2209;48.982;8.406;2022-09-09T10:28:16;19.60;99.90
4390;DHT22;2209;48.982;8.406;2022-09-09T10:30:54;19.60;99.80
4390;DHT22;2209;48.982;8.406;2022-09-09T10:33:27;19.60;99.50
4390;DHT22;2209;48.982;8.406;2022-09-09T10:36:08;19.60;99.60
4390;DHT22;2209;48.982;8.406;2022-09-09T10:38:39;19.60;99.60
4390;DHT22;2209;48.982;8.406;2022-09-09T10:41:12;19.70;99.80
4390;DHT22;2209;48.982;8.406;2022-09-09T10:43:46;19.60;99.90
4390;DHT22;2209;48.982;8.406;2022-09-09T10:46:18;19.60;99.90
4390;DHT22;2209;48.982;8.406;2022-09-09T10:48:55;19.60;99.90
4390;DHT22;2209;48.982;8.406;2022-09-09T10:51:28;19.70;99.90
4390;DHT22;2209;48.982;8.406;2022-09-09T10:54:13;19.70;99.90
4390;DHT22;2209;48.982;8.406;2022-09-09T10:56:42;19.70;99.90
4390;DHT22;2209;48.982;8.406;2022-09-09T10:59:11;19.70;99.20
4390;DHT22;2209;48.982;8.406;2022-09-09T11:01:40;19.70;98.60
4390;DHT22;2209;48.982;8.406;2022-09-09T11:04:17;19.70;98.80
4390;DHT22;2209;48.982;8.406;2022-09-09T11:06:45;19.70;98.60
4390;DHT22;2209;48.982;8.406;2022-09-09T11:09:14;19.70;98.90
4390;DHT22;2209;48.982;8.406;2022-09-09T11:11:42;19.70;99.30
4390;DHT22;2209;48.982;8.406;2022-09-09T11:14:12;19.70;99.60
4390;DHT22;2209;48.982;8.406;2022-09-09T11:16:40;19.70;99.70
4390;DHT22;2209;48.982;8.406;2022-09-09T11:19:13;19.70;99.90
4390;DHT22;2209;48.982;8.406;2022-09-09T11:21:41;19.80;99.90
4390;DHT22;2209;48.982;8.406;2022-09-09T11:24:10;19.80;99.90
4390;DHT22;2209;48.982;8.406;2022-09-09T11:26:38;19.80;99.90
4390;DHT22;2209;48.982;8.406;2022-09-09T11:32:04;19.80;99.90
4390;DHT22;2209;48.982;8.406;2022-09-09T11:34:49;19.90;99.90
4390;DHT22;2209;48.982;8.406;2022-09-09T11:37:40;19.90;99.90
4390;DHT22;2209;48.982;8.406;2022-09-09T11:40:25;19.90;99.90
4390;DHT22;2209;48.982;8.406;2022-09-09T11:42:48;19.90;99.90
4390;DHT22;2209;48.982;8.406;2022-09-09T11:45:20;19.90;99.90
4390;DHT22;2209;48.982;8.406;2022-09-09T11:47:51;19.90;99.90
4390;DHT22;2209;48.982;8.406;2022-09-09T11:50:31;19.90;99.90
4390;DHT22;2209;48.982;8.406;2022-09-09T11:53:05;19.90;99.90
4390;DHT22;2209;48.982;8.406;2022-09-09T11:55:30;20.00;99.90
4390;DHT22;2209;48.982;8.406;2022-09-09T11:57:58;20.00;99.90
4390;DHT22;2209;48.982;8.406;2022-09-09T12:00:33;20.00;99.80
4390;DHT22;2209;48.982;8.406;2022-09-09T12:02:56;20.00;99.90
4390;DHT22;2209;48.982;8.406;2022-09-09T12:05:18;20.00;99.80
4390;DHT22;2209;48.982;8.406;2022-09-09T12:07:50;20.00;99.60
4390;DHT22;2209;48.982;8.406;2022-09-09T12:10:22;20.00;99.50
4390;DHT22;2209;48.982;8.406;2022-09-09T12:12:46;20.10;99.60
4390;DHT22;2209;48.982;8.406;2022-09-09T12:15:24;20.10;99.40
4390;DHT22;2209;48.982;8.406;2022-09-09T12:17:50;20.20;99.00
4390;DHT22;2209;48.982;8.406;2022-09-09T12:20:16;20.20;98.90
4390;DHT22;2209;48.982;8.406;2022-09-09T12:22:47;20.30;99.00
4390;DHT22;2209;48.982;8.406;2022-09-09T12:25:23;20.30;98.70
4390;DHT22;2209;48.982;8.406;2022-09-09T12:27:59;20.30;98.40
4390;DHT22;2209;48.982;8.406;2022-09-09T12:30:29;20.30;98.00
4390;DHT22;2209;48.982;8.406;2022-09-09T12:33:00;20.40;97.70
4390;DHT22;2209;48.982;8.406;2022-09-09T12:35:26;20.40;97.50
4390;DHT22;2209;48.982;8.406;2022-09-09T12:37:53;20.40;97.30
4390;DHT22;2209;48.982;8.406;2022-09-09T12:40:21;20.40;97.30
4390;DHT22;2209;48.982;8.406;2022-09-09T12:42:43;20.40;97.40
4390;DHT22;2209;48.982;8.406;2022-09-09T12:45:16;20.50;97.30
4390;DHT22;2209;48.982;8.406;2022-09-09T12:47:41;20.50;97.40
4390;DHT22;2209;48.982;8.406;2022-09-09T12:50:10;20.50;97.20
4390;DHT22;2209;48.982;8.406;2022-09-09T12:52:37;20.60;97.20
4390;DHT22;2209;48.982;8.406;2022-09-09T12:55:03;20.60;96.90
4390;DHT22;2209;48.982;8.406;2022-09-09T12:57:31;20.50;99.90
4390;DHT22;2209;48.982;8.406;2022-09-09T13:00:04;20.50;99.90
4390;DHT22;2209;48.982;8.406;2022-09-09T13:02:27;20.40;99.90
4390;DHT22;2209;48.982;8.406;2022-09-09T13:04:52;20.40;99.90
4390;DHT22;2209;48.982;8.406;2022-09-09T13:07:20;20.30;99.90
4390;DHT22;2209;48.982;8.406;2022-09-09T13:09:42;20.30;99.90
4390;DHT22;2209;48.982;8.406;2022-09-09T13:12:13;20.30;99.90
4390;DHT22;2209;48.982;8.406;2022-09-09T13:14:36;20.30;99.90
4390;DHT22;2209;48.982;8.406;2022-09-09T13:17:01;20.30;99.90
4390;DHT22;2209;48.982;8.406;2022-09-09T13:19:24;20.30;99.90
4390;DHT22;2209;48.982;8.406;2022-09-09T13:21:48;20.30;99.90
4390;DHT22;2209;48.982;8.406;2022-09-09T13:24:25;20.30;99.90
4390;DHT22;2209;48.982;8.406;2022-09-09T13:26:54;20.20;99.70
4390;DHT22;2209;48.982;8.406;2022-09-09T13:29:19;20.20;98.60
4390;DHT22;2209;48.982;8.406;2022-09-09T13:31:41;20.20;98.50
4390;DHT22;2209;48.982;8.406;2022-09-09T13:34:11;20.20;98.40
4390;DHT22;2209;48.982;8.406;2022-09-09T13:36:35;20.20;98.20
4390;DHT22;2209;48.982;8.406;2022-09-09T13:38:58;20.20;97.90
4390;DHT22;2209;48.982;8.406;2022-09-09T13:41:22;20.30;98.20
4390;DHT22;2209;48.982;8.406;2022-09-09T13:43:47;20.30;98.50
4390;DHT22;2209;48.982;8.406;2022-09-09T13:46:27;20.30;98.80
4390;DHT22;2209;48.982;8.406;2022-09-09T13:48:55;20.30;99.10
4390;DHT22;2209;48.982;8.406;2022-09-09T13:51:29;20.30;99.30
4390;DHT22;2209;48.982;8.406;2022-09-09T13:53:52;20.40;99.50
4390;DHT22;2209;48.982;8.406;2022-09-09T13:56:14;20.40;99.60
4390;DHT22;2209;48.982;8.406;2022-09-09T13:58:37;20.40;99.80
4390;DHT22;2209;48.982;8.406;2022-09-09T14:00:59;20.40;99.90
4390;DHT22;2209;48.982;8.406;2022-09-09T14:03:23;20.50;99.90
4390;DHT22;2209;48.982;8.406;2022-09-09T14:05:45;20.50;99.90
4390;DHT22;2209;48.982;8.406;2022-09-09T14:08:15;20.60;99.90
4390;DHT22;2209;48.982;8.406;2022-09-09T14:10:38;20.60;99.90
4390;DHT22;2209;48.982;8.406;2022-09-09T14:13:00;20.60;99.90
4390;DHT22;2209;48.982;8.406;2022-09-09T14:15:22;20.60;99.90
4390;DHT22;2209;48.982;8.406;2022-09-09T14:17:44;20.70;99.90
4390;DHT22;2209;48.982;8.406;2022-09-09T14:20:09;20.70;99.90
4390;DHT22;2209;48.982;8.406;2022-09-09T14:22:35;20.70;99.90
4390;DHT22;2209;48.982;8.406;2022-09-09T14:24:57;20.70;99.90
4390;DHT22;2209;48.982;8.406;2022-09-09T14:27:20;20.60;99.90
4390;DHT22;2209;48.982;8.406;2022-09-09T14:29:42;20.50;99.90
4390;DHT22;2209;48.982;8.406;2022-09-09T14:32:05;20.40;99.90
4390;DHT22;2209;48.982;8.406;2022-09-09T14:34:27;20.30;99.90
4390;DHT22;2209;48.982;8.406;2022-09-09T14:36:51;20.30;99.90
4390;DHT22;2209;48.982;8.406;2022-09-09T14:39:14;20.30;99.90
4390;DHT22;2209;48.982;8.406;2022-09-09T14:41:37;20.30;99.90
4390;DHT22;2209;48.982;8.406;2022-09-09T14:43:59;20.40;99.90
4390;DHT22;2209;48.982;8.406;2022-09-09T14:46:21;20.40;99.90
4390;DHT22;2209;48.982;8.406;2022-09-09T14:48:44;20.40;99.90
4390;DHT22;2209;48.982;8.406;2022-09-09T14:51:10;20.30;99.90
4390;DHT22;2209;48.982;8.406;2022-09-09T14:53:34;20.30;99.90
4390;DHT22;2209;48.982;8.406;2022-09-09T14:56:03;20.30;99.90
4390;DHT22;2209;48.982;8.406;2022-09-09T14:58:30;20.30;99.90
4390;DHT22;2209;48.982;8.406;2022-09-09T15:00:52;20.30;99.90
4390;DHT22;2209;48.982;8.406;2022-09-09T15:03:14;20.30;99.90
4390;DHT22;2209;48.982;8.406;2022-09-09T15:05:36;20.20;99.90
4390;DHT22;2209;48.982;8.406;2022-09-09T15:08:02;20.20;99.90
4390;DHT22;2209;48.982;8.406;2022-09-09T15:10:26;20.20;99.90
4390;DHT22;2209;48.982;8.406;2022-09-09T15:12:48;20.20;99.90
4390;DHT22;2209;48.982;8.406;2022-09-09T15:15:10;20.20;99.90
4390;DHT22;2209;48.982;8.406;2022-09-09T15:17:33;20.20;99.90
4390;DHT22;2209;48.982;8.406;2022-09-09T15:19:57;20.20;99.90
4390;DHT22;2209;48.982;8.406;2022-09-09T15:22:20;20.30;99.90
4390;DHT22;2209;48.982;8.406;2022-09-09T15:24:42;20.30;99.90
4390;DHT22;2209;48.982;8.406;2022-09-09T15:27:08;20.40;99.90
4390;DHT22;2209;48.982;8.406;2022-09-09T15:29:35;20.50;99.90
4390;DHT22;2209;48.982;8.406;2022-09-09T15:31:59;20.50;99.90
4390;DHT22;2209;48.982;8.406;2022-09-09T15:34:26;20.60;99.90
4390;DHT22;2209;48.982;8.406;2022-09-09T15:36:54;20.60;99.90
4390;DHT22;2209;48.982;8.406;2022-09-09T15:39:18;20.70;99.90
4390;DHT22;2209;48.982;8.406;2022-09-09T15:41:43;20.70;99.90
4390;DHT22;2209;48.982;8.406;2022-09-09T15:44:11;20.70;99.90
4390;DHT22;2209;48.982;8.406;2022-09-09T15:46:36;20.70;99.90
4390;DHT22;2209;48.982;8.406;2022-09-09T15:49:04;20.70;99.90
4390;DHT22;2209;48.982;8.406;2022-09-09T15:51:26;20.70;99.90
4390;DHT22;2209;48.982;8.406;2022-09-09T15:53:48;20.70;99.90
4390;DHT22;2209;48.982;8.406;2022-09-09T15:56:11;20.70;99.90
4390;DHT22;2209;48.982;8.406;2022-09-09T15:58:33;20.70;99.90
4390;DHT22;2209;48.982;8.406;2022-09-09T16:01:02;20.70;99.90
4390;DHT22;2209;48.982;8.406;2022-09-09T16:03:25;20.70;99.90